sensor_id;sensor_type;location;lat;lon;timestamp;temperature;humidity
16814;DHT22;8524;57.650;11.926;2024-01-27T00:00:18;5.50;99.90
16814;DHT22;8524;57.650;11.926;2024-01-27T00:02:44;5.50;99.90
16814;DHT22;8524;57.650;11.926;2024-01-27T00:05:11;5.50;99.90
16814;DHT22;8524;57.650;11.926;2024-01-27T00:07:40;5.50;99.90
16814;DHT22;8524;57.650;11.926;2024-01-27T00:10:07;5.50;99.90
16814;DHT22;8524;57.650;11.926;2024-01-27T00:12:34;5.50;99.90
16814;DHT22;8524;57.650;11.926;2024-01-27T00:15:01;5.50;99.90
16814;DHT22;8524;57.650;11.926;2024-01-27T00:17:28;5.50;99.90
16814;DHT22;8524;57.650;11.926;2024-01-27T00:19:55;5.50;99.90
16814;DHT22;8524;57.650;11.926;2024-01-27T00:22:22;5.50;99.90
16814;DHT22;8524;57.650;11.926;2024-01-27T00:24:50;5.60;99.90
16814;DHT22;8524;57.650;11.926;2024-01-27T00:27:18;5.50;99.90
16814;DHT22;8524;57.650;11.926;2024-01-27T00:29:44;5.50;99.90
16814;DHT22;8524;57.650;11.926;2024-01-27T00:32:11;5.40;99.90
16814;DHT22;8524;57.650;11.926;2024-01-27T00:34:38;5.30;99.90
16814;DHT22;8524;57.650;11.926;2024-01-27T00:37:05;5.40;99.90
16814;DHT22;8524;57.650;11.926;2024-01-27T00:39:32;5.40;99.90
16814;DHT22;8524;57.650;11.926;2024-01-27T00:42:00;5.40;99.90
16814;DHT22;8524;57.650;11.926;2024-01-27T00:44:27;5.30;99.90
16814;DHT22;8524;57.650;11.926;2024-01-27T00:46:54;5.30;99.90
16814;DHT22;8524;57.650;11.926;2024-01-27T00:49:21;5.40;99.90
16814;DHT22;8524;57.650;11.926;2024-01-27T00:51:48;5.50;99.90
16814;DHT22;8524;57.650;11.926;2024-01-27T00:54:15;5.60;99.90
16814;DHT22;8524;57.650;11.926;2024-01-27T00:56:41;5.60;99.90
16814;DHT22;8524;57.650;11.926;2024-01-27T00:59:10;5.50;99.90
16814;DHT22;8524;57.650;11.926;2024-01-27T01:01:36;5.50;99.90
16814;DHT22;8524;57.650;11.926;2024-01-27T01:04:03;5.50;99.90
16814;DHT22;8524;57.650;11.926;2024-01-27T01:06:30;5.40;99.90
16814;DHT22;8524;57.650;11.926;2024-01-27T01:08:57;5.30;99.90
16814;DHT22;8524;57.650;11.926;2024-01-27T01:11:24;5.40;99.90
16814;DHT22;8524;57.650;11.926;2024-01-27T01:13:51;5.30;99.90
16814;DHT22;8524;57.650;11.926;2024-01-27T01:16:19;5.40;99.90
16814;DHT22;8524;57.650;11.926;2024-01-27T01:18:46;5.30;99.90
16814;DHT22;8524;57.650;11.926;2024-01-27T01:21:13;5.20;99.90
16814;DHT22;8524;57.650;11.926;2024-01-27T01:23:40;5.30;99.90
16814;DHT22;8524;57.650;11.926;2024-01-27T01:26:07;5.40;99.90
16814;DHT22;8524;57.650;11.926;2024-01-27T01:28:33;5.30;99.90
16814;DHT22;8524;57.650;11.926;2024-01-27T01:31:00;5.30;99.90
16814;DHT22;8524;57.650;11.926;2024-01-27T01:33:28;5.30;99.90
16814;DHT22;8524;57.650;11.926;2024-01-27T01:35:55;5.20;99.90
16814;DHT22;8524;57.650;11.926;2024-01-27T01:38:22;5.20;99.90
16814;DHT22;8524;57.650;11.926;2024-01-27T01:40:49;5.20;99.90
16814;DHT22;8524;57.650;11.926;2024-01-27T01:43:16;5.20;99.90
16814;DHT22;8524;57.650;11.926;2024-01-27T01:45:43;5.20;99.90
16814;DHT22;8524;57.650;11.926;2024-01-27T01:48:09;5.20;99.90
16814;DHT22;8524;57.650;11.926;2024-01-27T01:50:38;5.20;99.90
16814;DHT22;8524;57.650;11.926;2024-01-27T01:53:05;5.30;99.90
16814;DHT22;8524;57.650;11.926;2024-01-27T01:55:33;5.20;99.90
16814;DHT22;8524;57.650;11.926;2024-01-27T01:58:00;5.10;99.90
16814;DHT22;8524;57.650;11.926;2024-01-27T02:00:27;5.10;99.90
16814;DHT22;8524;57.650;11.926;2024-01-27T02:02:54;5.00;99.90
16814;DHT22;8524;57.650;11.926;2024-01-27T02:05:21;5.00;99.90
16814;DHT22;8524;57.650;11.926;2024-01-27T02:07:49;5.10;99.90
16814;DHT22;8524;57.650;11.926;2024-01-27T02:10:17;5.10;99.90
16814;DHT22;8524;57.650;11.926;2024-01-27T02:12:45;5.10;99.90
16814;DHT22;8524;57.650;11.926;2024-01-27T02:15:13;5.10;99.90
16814;DHT22;8524;57.650;11.926;2024-01-27T02:17:40;5.00;99.90
16814;DHT22;8524;57.650;11.926;2024-01-27T02:20:07;5.20;99.90
16814;DHT22;8524;57.650;11.926;2024-01-27T02:22:35;5.20;99.90
16814;DHT22;8524;57.650;11.926;2024-01-27T02:25:04;5.20;99.90
16814;DHT22;8524;57.650;11.926;2024-01-27T02:27:31;5.00;99.90
16814;DHT22;8524;57.650;11.926;2024-01-27T02:29:57;5.00;99.90
16814;DHT22;8524;57.650;11.926;2024-01-27T02:32:24;5.10;99.90
16814;DHT22;8524;57.650;11.926;2024-01-27T02:34:51;5.10;99.90
16814;DHT22;8524;57.650;11.926;2024-01-27T02:37:18;5.00;99.90
16814;DHT22;8524;57.650;11.926;2024-01-27T02:39:45;5.10;99.90
16814;DHT22;8524;57.650;11.926;2024-01-27T02:42:14;5.00;99.90
16814;DHT22;8524;57.650;11.926;2024-01-27T02:44:41;5.00;99.90
16814;DHT22;8524;57.650;11.926;2024-01-27T02:47:07;5.00;99.90
16814;DHT22;8524;57.650;11.926;2024-01-27T02:49:34;5.00;99.90
16814;DHT22;8524;57.650;11.926;2024-01-27T02:52:01;5.00;99.90
16814;DHT22;8524;57.650;11.926;2024-01-27T02:54:28;5.00;99.90
16814;DHT22;8524;57.650;11.926;2024-01-27T02:56:55;5.00;99.90
16814;DHT22;8524;57.650;11.926;2024-01-27T02:59:23;5.00;99.90
16814;DHT22;8524;57.650;11.926;2024-01-27T03:01:50;5.00;99.90
16814;DHT22;8524;57.650;11.926;2024-01-27T03:04:17;5.00;99.90
16814;DHT22;8524;57.650;11.926;2024-01-27T03:06:44;5.00;99.90
16814;DHT22;8524;57.650;11.926;2024-01-27T03:09:11;5.10;99.90
16814;DHT22;8524;57.650;11.926;2024-01-27T03:11:37;5.00;99.90
16814;DHT22;8524;57.650;11.926;2024-01-27T03:14:04;5.00;99.90
16814;DHT22;8524;57.650;11.926;2024-01-27T03:16:33;5.00;99.90
16814;DHT22;8524;57.650;11.926;2024-01-27T03:19:00;5.00;99.90
16814;DHT22;8524;57.650;11.926;2024-01-27T03:21:27;5.00;99.90
16814;DHT22;8524;57.650;11.926;2024-01-27T03:23:54;5.00;99.90
16814;DHT22;8524;57.650;11.926;2024-01-27T03:26:21;4.90;99.90
16814;DHT22;8524;57.650;11.926;2024-01-27T03:28:48;4.90;99.90
16814;DHT22;8524;57.650;11.926;2024-01-27T03:31:15;4.90;99.90
16814;DHT22;8524;57.650;11.926;2024-01-27T03:33:43;4.80;99.90
16814;DHT22;8524;57.650;11.926;2024-01-27T03:36:10;4.80;99.90
16814;DHT22;8524;57.650;11.926;2024-01-27T03:38:38;4.80;99.90
16814;DHT22;8524;57.650;11.926;2024-01-27T03:41:05;4.70;99.90
16814;DHT22;8524;57.650;11.926;2024-01-27T03:43:32;4.70;99.90
16814;DHT22;8524;57.650;11.926;2024-01-27T03:45:59;4.70;99.90
16814;DHT22;8524;57.650;11.926;2024-01-27T03:48:26;4.60;99.90
16814;DHT22;8524;57.650;11.926;2024-01-27T03:50:54;4.80;99.90
16814;DHT22;8524;57.650;11.926;2024-01-27T03:53:21;4.70;99.90
16814;DHT22;8524;57.650;11.926;2024-01-27T03:55:48;4.60;99.90
16814;DHT22;8524;57.650;11.926;2024-01-27T03:58:15;4.60;99.90
16814;DHT22;8524;57.650;11.926;2024-01-27T04:00:42;4.60;99.90
16814;DHT22;8524;57.650;11.926;2024-01-27T04:03:09;4.60;99.90
16814;DHT22;8524;57.650;11.926;2024-01-27T04:05:36;4.60;99.90
16814;DHT22;8524;57.650;11.926;2024-01-27T04:08:05;4.60;99.90
16814;DHT22;8524;57.650;11.926;2024-01-27T04:10:32;4.60;99.90
16814;DHT22;8524;57.650;11.926;2024-01-27T04:12:58;4.60;99.90
16814;DHT22;8524;57.650;11.926;2024-01-27T04:15:25;4.70;99.90
16814;DHT22;8524;57.650;11.926;2024-01-27T04:17:53;4.70;99.90
16814;DHT22;8524;57.650;11.926;2024-01-27T04:20:20;4.70;99.90
16814;DHT22;8524;57.650;11.926;2024-01-27T04:22:47;4.70;99.90
16814;DHT22;8524;57.650;11.926;2024-01-27T04:25:15;4.70;99.90
16814;DHT22;8524;57.650;11.926;2024-01-27T04:27:42;4.70;99.90
16814;DHT22;8524;57.650;11.926;2024-01-27T04:30:11;4.70;99.90
16814;DHT22;8524;57.650;11.926;2024-01-27T04:32:38;4.60;99.90
16814;DHT22;8524;57.650;11.926;2024-01-27T04:35:08;4.50;99.90
16814;DHT22;8524;57.650;11.926;2024-01-27T04:37:35;4.50;99.90
16814;DHT22;8524;57.650;11.926;2024-01-27T04:40:03;4.50;99.90
16814;DHT22;8524;57.650;11.926;2024-01-27T04:42:32;4.60;99.90
16814;DHT22;8524;57.650;11.926;2024-01-27T04:44:59;4.60;99.90
16814;DHT22;8524;57.650;11.926;2024-01-27T04:47:26;4.70;99.90
16814;DHT22;8524;57.650;11.926;2024-01-27T04:49:53;4.60;99.90
16814;DHT22;8524;57.650;11.926;2024-01-27T04:52:20;4.70;99.90
16814;DHT22;8524;57.650;11.926;2024-01-27T04:54:47;4.70;99.90
16814;DHT22;8524;57.650;11.926;2024-01-27T04:57:14;4.70;99.90
16814;DHT22;8524;57.650;11.926;2024-01-27T04:59:42;4.70;99.90
16814;DHT22;8524;57.650;11.926;2024-01-27T05:02:10;4.80;99.90
16814;DHT22;8524;57.650;11.926;2024-01-27T05:04:37;4.80;99.90
16814;DHT22;8524;57.650;11.926;2024-01-27T05:07:04;4.70;99.90
16814;DHT22;8524;57.650;11.926;2024-01-27T05:09:31;4.70;99.90
16814;DHT22;8524;57.650;11.926;2024-01-27T05:12:00;4.70;99.90
16814;DHT22;8524;57.650;11.926;2024-01-27T05:14:28;4.70;99.90
16814;DHT22;8524;57.650;11.926;2024-01-27T05:16:56;4.60;99.90
16814;DHT22;8524;57.650;11.926;2024-01-27T05:19:23;4.60;99.90
16814;DHT22;8524;57.650;11.926;2024-01-27T05:21:50;4.50;99.90
16814;DHT22;8524;57.650;11.926;2024-01-27T05:24:17;4.50;99.90
16814;DHT22;8524;57.650;11.926;2024-01-27T05:26:44;4.50;99.90
16814;DHT22;8524;57.650;11.926;2024-01-27T05:29:11;4.40;99.90
16814;DHT22;8524;57.650;11.926;2024-01-27T05:31:37;4.40;99.90
16814;DHT22;8524;57.650;11.926;2024-01-27T05:34:06;4.30;99.90
16814;DHT22;8524;57.650;11.926;2024-01-27T05:36:32;4.30;99.90
16814;DHT22;8524;57.650;11.926;2024-01-27T05:39:00;4.40;99.90
16814;DHT22;8524;57.650;11.926;2024-01-27T05:41:28;4.30;99.90
16814;DHT22;8524;57.650;11.926;2024-01-27T05:43:55;4.30;99.90
16814;DHT22;8524;57.650;11.926;2024-01-27T05:46:23;4.30;99.90
16814;DHT22;8524;57.650;11.926;2024-01-27T05:48:50;4.30;99.90
16814;DHT22;8524;57.650;11.926;2024-01-27T05:51:21;4.20;99.90
16814;DHT22;8524;57.650;11.926;2024-01-27T05:53:49;4.20;99.90
16814;DHT22;8524;57.650;11.926;2024-01-27T05:56:16;4.20;99.90
16814;DHT22;8524;57.650;11.926;2024-01-27T05:58:44;4.20;99.90
16814;DHT22;8524;57.650;11.926;2024-01-27T06:01:11;4.30;99.90
16814;DHT22;8524;57.650;11.926;2024-01-27T06:03:38;4.30;99.90
16814;DHT22;8524;57.650;11.926;2024-01-27T06:06:05;4.20;99.90
16814;DHT22;8524;57.650;11.926;2024-01-27T06:08:33;4.30;99.90
16814;DHT22;8524;57.650;11.926;2024-01-27T06:11:00;4.20;99.90
16814;DHT22;8524;57.650;11.926;2024-01-27T06:13:28;4.10;99.90
16814;DHT22;8524;57.650;11.926;2024-01-27T06:15:55;4.10;99.90
16814;DHT22;8524;57.650;11.926;2024-01-27T06:18:22;4.10;99.90
16814;DHT22;8524;57.650;11.926;2024-01-27T06:20:49;4.10;99.90
16814;DHT22;8524;57.650;11.926;2024-01-27T06:23:16;4.20;99.90
16814;DHT22;8524;57.650;11.926;2024-01-27T06:25:45;4.20;99.90
16814;DHT22;8524;57.650;11.926;2024-01-27T06:28:11;4.20;99.90
16814;DHT22;8524;57.650;11.926;2024-01-27T06:30:38;4.20;99.90
16814;DHT22;8524;57.650;11.926;2024-01-27T06:33:05;4.20;99.90
16814;DHT22;8524;57.650;11.926;2024-01-27T06:35:32;4.30;99.90
16814;DHT22;8524;57.650;11.926;2024-01-27T06:37:59;4.40;99.90
16814;DHT22;8524;57.650;11.926;2024-01-27T06:40:26;4.50;99.90
16814;DHT22;8524;57.650;11.926;2024-01-27T06:42:54;4.40;99.90
16814;DHT22;8524;57.650;11.926;2024-01-27T06:45:21;4.40;99.90
16814;DHT22;8524;57.650;11.926;2024-01-27T06:47:48;4.40;99.90
16814;DHT22;8524;57.650;11.926;2024-01-27T06:50:15;4.40;99.90
16814;DHT22;8524;57.650;11.926;2024-01-27T06:52:41;4.40;99.90
16814;DHT22;8524;57.650;11.926;2024-01-27T06:55:08;4.40;99.90
16814;DHT22;8524;57.650;11.926;2024-01-27T06:57:36;4.40;99.90
16814;DHT22;8524;57.650;11.926;2024-01-27T07:00:06;4.30;99.90
16814;DHT22;8524;57.650;11.926;2024-01-27T07:02:33;4.30;99.90
16814;DHT22;8524;57.650;11.926;2024-01-27T07:04:59;4.30;99.90
16814;DHT22;8524;57.650;11.926;2024-01-27T07:07:28;4.20;99.90
16814;DHT22;8524;57.650;11.926;2024-01-27T07:09:56;4.20;99.90
16814;DHT22;8524;57.650;11.926;2024-01-27T07:12:23;4.10;99.90
16814;DHT22;8524;57.650;11.926;2024-01-27T07:14:50;4.10;99.90
16814;DHT22;8524;57.650;11.926;2024-01-27T07:17:19;4.10;99.90
16814;DHT22;8524;57.650;11.926;2024-01-27T07:19:46;4.10;99.90
16814;DHT22;8524;57.650;11.926;2024-01-27T07:22:13;4.20;99.90
16814;DHT22;8524;57.650;11.926;2024-01-27T07:24:40;4.10;99.90
16814;DHT22;8524;57.650;11.926;2024-01-27T07:27:06;4.20;99.90
16814;DHT22;8524;57.650;11.926;2024-01-27T07:29:33;4.20;99.90
16814;DHT22;8524;57.650;11.926;2024-01-27T07:32:00;4.40;99.90
16814;DHT22;8524;57.650;11.926;2024-01-27T07:34:29;4.40;99.90
16814;DHT22;8524;57.650;11.926;2024-01-27T07:36:55;4.50;99.90
16814;DHT22;8524;57.650;11.926;2024-01-27T07:39:22;4.60;99.90
16814;DHT22;8524;57.650;11.926;2024-01-27T07:41:49;4.60;99.90
16814;DHT22;8524;57.650;11.926;2024-01-27T07:44:18;4.80;99.90
16814;DHT22;8524;57.650;11.926;2024-01-27T07:46:45;4.90;99.90
16814;DHT22;8524;57.650;11.926;2024-01-27T07:49:12;5.00;99.90
16814;DHT22;8524;57.650;11.926;2024-01-27T07:51:42;4.90;99.90
16814;DHT22;8524;57.650;11.926;2024-01-27T07:54:08;4.90;99.90
16814;DHT22;8524;57.650;11.926;2024-01-27T07:56:35;4.90;99.90
16814;DHT22;8524;57.650;11.926;2024-01-27T07:59:02;4.90;99.90
16814;DHT22;8524;57.650;11.926;2024-01-27T08:01:29;4.90;99.90
16814;DHT22;8524;57.650;11.926;2024-01-27T08:03:56;4.90;99.90
16814;DHT22;8524;57.650;11.926;2024-01-27T08:06:28;4.90;99.90
16814;DHT22;8524;57.650;11.926;2024-01-27T08:09:00;4.80;99.90
16814;DHT22;8524;57.650;11.926;2024-01-27T08:11:27;4.80;99.90
16814;DHT22;8524;57.650;11.926;2024-01-27T08:13:54;4.90;99.90
16814;DHT22;8524;57.650;11.926;2024-01-27T08:16:21;4.80;99.90
16814;DHT22;8524;57.650;11.926;2024-01-27T08:18:48;4.90;99.90
16814;DHT22;8524;57.650;11.926;2024-01-27T08:21:15;4.90;99.90
16814;DHT22;8524;57.650;11.926;2024-01-27T08:23:41;5.00;99.90
16814;DHT22;8524;57.650;11.926;2024-01-27T08:26:11;5.00;99.90
16814;DHT22;8524;57.650;11.926;2024-01-27T08:28:38;5.00;99.90
16814;DHT22;8524;57.650;11.926;2024-01-27T08:31:05;5.00;99.90
16814;DHT22;8524;57.650;11.926;2024-01-27T08:33:32;5.10;99.90
16814;DHT22;8524;57.650;11.926;2024-01-27T08:35:59;5.10;99.90
16814;DHT22;8524;57.650;11.926;2024-01-27T08:38:26;5.20;99.90
16814;DHT22;8524;57.650;11.926;2024-01-27T08:40:53;5.20;99.90
16814;DHT22;8524;57.650;11.926;2024-01-27T08:43:21;5.20;99.90
16814;DHT22;8524;57.650;11.926;2024-01-27T08:45:48;5.30;99.90
16814;DHT22;8524;57.650;11.926;2024-01-27T08:48:15;5.40;99.90
16814;DHT22;8524;57.650;11.926;2024-01-27T08:50:42;5.40;99.90
16814;DHT22;8524;57.650;11.926;2024-01-27T08:53:09;5.50;99.90
16814;DHT22;8524;57.650;11.926;2024-01-27T08:55:36;5.50;99.90
16814;DHT22;8524;57.650;11.926;2024-01-27T08:58:03;5.60;99.90
16814;DHT22;8524;57.650;11.926;2024-01-27T09:00:31;5.60;99.90
16814;DHT22;8524;57.650;11.926;2024-01-27T09:02:58;5.60;99.90
16814;DHT22;8524;57.650;11.926;2024-01-27T09:05:26;5.70;99.90
16814;DHT22;8524;57.650;11.926;2024-01-27T09:07:54;5.60;99.90
16814;DHT22;8524;57.650;11.926;2024-01-27T09:10:21;5.60;99.90
16814;DHT22;8524;57.650;11.926;2024-01-27T09:12:49;5.70;99.90
16814;DHT22;8524;57.650;11.926;2024-01-27T09:15:16;5.80;99.90
16814;DHT22;8524;57.650;11.926;2024-01-27T09:17:44;5.80;99.90
16814;DHT22;8524;57.650;11.926;2024-01-27T09:20:11;5.80;99.90
16814;DHT22;8524;57.650;11.926;2024-01-27T09:22:38;5.90;99.90
16814;DHT22;8524;57.650;11.926;2024-01-27T09:25:07;6.00;99.90
16814;DHT22;8524;57.650;11.926;2024-01-27T09:27:35;6.00;99.90
16814;DHT22;8524;57.650;11.926;2024-01-27T09:30:02;6.10;99.90
16814;DHT22;8524;57.650;11.926;2024-01-27T09:32:30;6.20;99.90
16814;DHT22;8524;57.650;11.926;2024-01-27T09:34:58;6.20;99.90
16814;DHT22;8524;57.650;11.926;2024-01-27T09:37:25;6.10;99.90
16814;DHT22;8524;57.650;11.926;2024-01-27T09:39:52;6.10;99.90
16814;DHT22;8524;57.650;11.926;2024-01-27T09:42:21;6.10;99.90
16814;DHT22;8524;57.650;11.926;2024-01-27T09:44:49;6.10;99.90
16814;DHT22;8524;57.650;11.926;2024-01-27T09:47:16;6.10;99.90
16814;DHT22;8524;57.650;11.926;2024-01-27T09:49:43;6.10;99.90
16814;DHT22;8524;57.650;11.926;2024-01-27T09:52:11;6.10;99.90
16814;DHT22;8524;57.650;11.926;2024-01-27T09:54:40;6.10;99.90
16814;DHT22;8524;57.650;11.926;2024-01-27T09:57:08;6.20;99.90
16814;DHT22;8524;57.650;11.926;2024-01-27T09:59:36;6.20;99.90
16814;DHT22;8524;57.650;11.926;2024-01-27T10:02:04;6.20;99.90
16814;DHT22;8524;57.650;11.926;2024-01-27T10:04:33;6.30;99.90
16814;DHT22;8524;57.650;11.926;2024-01-27T10:07:00;6.30;99.90
16814;DHT22;8524;57.650;11.926;2024-01-27T10:09:29;6.30;99.90
16814;DHT22;8524;57.650;11.926;2024-01-27T10:11:56;6.20;99.90
16814;DHT22;8524;57.650;11.926;2024-01-27T10:14:24;6.20;99.90
16814;DHT22;8524;57.650;11.926;2024-01-27T10:16:50;6.20;99.90
16814;DHT22;8524;57.650;11.926;2024-01-27T10:19:18;6.20;99.90
16814;DHT22;8524;57.650;11.926;2024-01-27T10:21:47;6.20;99.90
16814;DHT22;8524;57.650;11.926;2024-01-27T10:24:14;6.20;99.90
16814;DHT22;8524;57.650;11.926;2024-01-27T10:26:43;6.20;99.90
16814;DHT22;8524;57.650;11.926;2024-01-27T10:29:10;6.30;99.90
16814;DHT22;8524;57.650;11.926;2024-01-27T10:31:37;6.30;99.90
16814;DHT22;8524;57.650;11.926;2024-01-27T10:34:04;6.30;99.90
16814;DHT22;8524;57.650;11.926;2024-01-27T10:36:41;6.30;99.90
16814;DHT22;8524;57.650;11.926;2024-01-27T10:39:18;6.30;99.90
16814;DHT22;8524;57.650;11.926;2024-01-27T10:41:48;6.30;99.90
16814;DHT22;8524;57.650;11.926;2024-01-27T10:44:15;6.30;99.90
16814;DHT22;8524;57.650;11.926;2024-01-27T10:46:44;6.30;99.90
16814;DHT22;8524;57.650;11.926;2024-01-27T10:49:12;6.30;99.90
16814;DHT22;8524;57.650;11.926;2024-01-27T10:51:43;6.30;99.90
16814;DHT22;8524;57.650;11.926;2024-01-27T10:54:15;6.30;99.90
16814;DHT22;8524;57.650;11.926;2024-01-27T10:56:46;6.30;99.90
16814;DHT22;8524;57.650;11.926;2024-01-27T10:59:14;6.30;99.90
16814;DHT22;8524;57.650;11.926;2024-01-27T11:01:43;6.30;99.90
16814;DHT22;8524;57.650;11.926;2024-01-27T11:04:11;6.40;99.90
16814;DHT22;8524;57.650;11.926;2024-01-27T11:06:40;6.50;99.90
16814;DHT22;8524;57.650;11.926;2024-01-27T11:09:10;6.50;99.90
16814;DHT22;8524;57.650;11.926;2024-01-27T11:11:39;6.50;99.90
16814;DHT22;8524;57.650;11.926;2024-01-27T11:14:08;6.50;99.90
16814;DHT22;8524;57.650;11.926;2024-01-27T11:16:36;6.50;99.90
16814;DHT22;8524;57.650;11.926;2024-01-27T11:19:08;6.60;99.90
16814;DHT22;8524;57.650;11.926;2024-01-27T11:21:36;6.60;99.90
16814;DHT22;8524;57.650;11.926;2024-01-27T11:24:13;6.60;99.90
16814;DHT22;8524;57.650;11.926;2024-01-27T11:26:40;6.60;99.90
16814;DHT22;8524;57.650;11.926;2024-01-27T11:29:08;6.70;99.90
16814;DHT22;8524;57.650;11.926;2024-01-27T11:31:45;6.70;99.90
16814;DHT22;8524;57.650;11.926;2024-01-27T11:34:12;6.70;99.90
16814;DHT22;8524;57.650;11.926;2024-01-27T11:36:42;6.70;99.90
16814;DHT22;8524;57.650;11.926;2024-01-27T11:39:23;6.70;99.90
16814;DHT22;8524;57.650;11.926;2024-01-27T11:41:51;6.60;99.90
16814;DHT22;8524;57.650;11.926;2024-01-27T11:44:20;6.60;99.90
16814;DHT22;8524;57.650;11.926;2024-01-27T11:46:47;6.70;99.90
16814;DHT22;8524;57.650;11.926;2024-01-27T11:49:15;6.60;99.90
16814;DHT22;8524;57.650;11.926;2024-01-27T11:51:43;6.70;99.90
16814;DHT22;8524;57.650;11.926;2024-01-27T11:54:10;6.70;99.90
16814;DHT22;8524;57.650;11.926;2024-01-27T11:56:36;6.70;99.90
16814;DHT22;8524;57.650;11.926;2024-01-27T11:59:03;6.80;99.90
16814;DHT22;8524;57.650;11.926;2024-01-27T12:01:32;6.80;99.90
16814;DHT22;8524;57.650;11.926;2024-01-27T12:03:59;6.70;99.90
16814;DHT22;8524;57.650;11.926;2024-01-27T12:06:25;6.70;99.90
16814;DHT22;8524;57.650;11.926;2024-01-27T12:08:56;6.80;99.90
16814;DHT22;8524;57.650;11.926;2024-01-27T12:11:23;6.90;99.90
16814;DHT22;8524;57.650;11.926;2024-01-27T12:13:50;6.80;99.90
16814;DHT22;8524;57.650;11.926;2024-01-27T12:16:18;6.80;99.90
16814;DHT22;8524;57.650;11.926;2024-01-27T12:18:46;6.80;99.90
16814;DHT22;8524;57.650;11.926;2024-01-27T12:21:13;6.80;99.90
16814;DHT22;8524;57.650;11.926;2024-01-27T12:23:53;6.80;99.90
16814;DHT22;8524;57.650;11.926;2024-01-27T12:26:20;6.80;99.90
16814;DHT22;8524;57.650;11.926;2024-01-27T12:28:48;6.70;99.90
16814;DHT22;8524;57.650;11.926;2024-01-27T12:31:15;6.60;99.90
16814;DHT22;8524;57.650;11.926;2024-01-27T12:33:50;6.60;99.90
16814;DHT22;8524;57.650;11.926;2024-01-27T12:36:17;6.50;99.90
16814;DHT22;8524;57.650;11.926;2024-01-27T12:38:53;6.50;99.90
16814;DHT22;8524;57.650;11.926;2024-01-27T12:41:20;6.50;99.90
16814;DHT22;8524;57.650;11.926;2024-01-27T12:43:47;6.50;99.90
16814;DHT22;8524;57.650;11.926;2024-01-27T12:46:15;6.50;99.90
16814;DHT22;8524;57.650;11.926;2024-01-27T12:48:42;6.50;99.90
16814;DHT22;8524;57.650;11.926;2024-01-27T12:51:10;6.50;99.90
16814;DHT22;8524;57.650;11.926;2024-01-27T12:53:38;6.50;99.90
16814;DHT22;8524;57.650;11.926;2024-01-27T12:56:07;6.50;99.90
16814;DHT22;8524;57.650;11.926;2024-01-27T12:58:34;6.40;99.90
16814;DHT22;8524;57.650;11.926;2024-01-27T13:01:01;6.40;99.90
16814;DHT22;8524;57.650;11.926;2024-01-27T13:03:28;6.50;99.90
16814;DHT22;8524;57.650;11.926;2024-01-27T13:05:55;6.40;99.90
16814;DHT22;8524;57.650;11.926;2024-01-27T13:08:24;6.40;99.90
16814;DHT22;8524;57.650;11.926;2024-01-27T13:10:51;6.40;99.90
16814;DHT22;8524;57.650;11.926;2024-01-27T13:13:18;6.40;99.90
16814;DHT22;8524;57.650;11.926;2024-01-27T13:15:45;6.40;99.90
16814;DHT22;8524;57.650;11.926;2024-01-27T13:18:12;6.40;99.90
16814;DHT22;8524;57.650;11.926;2024-01-27T13:20:39;6.30;99.90
16814;DHT22;8524;57.650;11.926;2024-01-27T13:23:06;6.30;99.90
16814;DHT22;8524;57.650;11.926;2024-01-27T13:25:34;6.10;99.90
16814;DHT22;8524;57.650;11.926;2024-01-27T13:28:01;6.00;99.90
16814;DHT22;8524;57.650;11.926;2024-01-27T13:30:28;6.00;99.90
16814;DHT22;8524;57.650;11.926;2024-01-27T13:32:55;6.10;99.90
16814;DHT22;8524;57.650;11.926;2024-01-27T13:35:22;5.90;99.90
16814;DHT22;8524;57.650;11.926;2024-01-27T13:37:49;5.80;99.90
16814;DHT22;8524;57.650;11.926;2024-01-27T13:40:16;5.90;99.90
16814;DHT22;8524;57.650;11.926;2024-01-27T13:42:44;5.80;99.90
16814;DHT22;8524;57.650;11.926;2024-01-27T13:45:11;5.80;99.90
16814;DHT22;8524;57.650;11.926;2024-01-27T13:47:38;5.80;99.90
16814;DHT22;8524;57.650;11.926;2024-01-27T13:50:06;5.80;99.90
16814;DHT22;8524;57.650;11.926;2024-01-27T13:52:33;5.80;99.90
16814;DHT22;8524;57.650;11.926;2024-01-27T13:54:59;5.80;99.90
16814;DHT22;8524;57.650;11.926;2024-01-27T13:57:27;5.80;99.90
16814;DHT22;8524;57.650;11.926;2024-01-27T13:59:55;5.90;99.90
16814;DHT22;8524;57.650;11.926;2024-01-27T14:02:22;5.90;99.90
16814;DHT22;8524;57.650;11.926;2024-01-27T14:04:49;5.90;99.90
16814;DHT22;8524;57.650;11.926;2024-01-27T14:07:16;5.90;99.90
16814;DHT22;8524;57.650;11.926;2024-01-27T14:09:43;5.90;99.90
16814;DHT22;8524;57.650;11.926;2024-01-27T14:12:10;5.90;99.90
16814;DHT22;8524;57.650;11.926;2024-01-27T14:14:37;5.90;99.90
16814;DHT22;8524;57.650;11.926;2024-01-27T14:17:08;5.80;99.90
16814;DHT22;8524;57.650;11.926;2024-01-27T14:19:35;5.80;99.90
16814;DHT22;8524;57.650;11.926;2024-01-27T14:22:02;5.80;99.90
16814;DHT22;8524;57.650;11.926;2024-01-27T14:24:29;5.80;99.90
16814;DHT22;8524;57.650;11.926;2024-01-27T14:26:58;5.80;99.90
16814;DHT22;8524;57.650;11.926;2024-01-27T14:29:25;5.70;99.90
16814;DHT22;8524;57.650;11.926;2024-01-27T14:31:52;5.70;99.90
16814;DHT22;8524;57.650;11.926;2024-01-27T14:34:20;5.70;99.90
16814;DHT22;8524;57.650;11.926;2024-01-27T14:36:47;5.70;99.90
16814;DHT22;8524;57.650;11.926;2024-01-27T14:39:14;5.70;99.90
16814;DHT22;8524;57.650;11.926;2024-01-27T14:41:42;5.70;99.90
16814;DHT22;8524;57.650;11.926;2024-01-27T14:44:08;5.70;99.90
16814;DHT22;8524;57.650;11.926;2024-01-27T14:46:36;5.70;99.90
16814;DHT22;8524;57.650;11.926;2024-01-27T14:49:05;5.60;99.90
16814;DHT22;8524;57.650;11.926;2024-01-27T14:51:35;5.60;99.90
16814;DHT22;8524;57.650;11.926;2024-01-27T14:54:02;5.60;99.90
16814;DHT22;8524;57.650;11.926;2024-01-27T14:56:30;5.60;99.90
16814;DHT22;8524;57.650;11.926;2024-01-27T14:58:57;5.70;99.90
16814;DHT22;8524;57.650;11.926;2024-01-27T15:01:24;5.70;99.90
16814;DHT22;8524;57.650;11.926;2024-01-27T15:03:52;5.70;99.90
16814;DHT22;8524;57.650;11.926;2024-01-27T15:06:20;5.80;99.90
16814;DHT22;8524;57.650;11.926;2024-01-27T15:08:48;5.70;99.90
16814;DHT22;8524;57.650;11.926;2024-01-27T15:11:15;5.80;99.90
16814;DHT22;8524;57.650;11.926;2024-01-27T15:13:42;5.70;99.90
16814;DHT22;8524;57.650;11.926;2024-01-27T15:16:09;5.60;99.90
16814;DHT22;8524;57.650;11.926;2024-01-27T15:18:36;5.50;99.90
16814;DHT22;8524;57.650;11.926;2024-01-27T15:21:09;5.50;99.90
16814;DHT22;8524;57.650;11.926;2024-01-27T15:23:36;5.50;99.90
16814;DHT22;8524;57.650;11.926;2024-01-27T15:26:05;5.50;99.90
16814;DHT22;8524;57.650;11.926;2024-01-27T15:28:32;5.50;99.90
16814;DHT22;8524;57.650;11.926;2024-01-27T15:30:59;5.40;99.90
16814;DHT22;8524;57.650;11.926;2024-01-27T15:33:26;5.50;99.90
16814;DHT22;8524;57.650;11.926;2024-01-27T15:35:53;5.40;99.90
16814;DHT22;8524;57.650;11.926;2024-01-27T15:38:20;5.40;99.90
16814;DHT22;8524;57.650;11.926;2024-01-27T15:40:47;5.40;99.90
16814;DHT22;8524;57.650;11.926;2024-01-27T15:43:15;5.50;99.90
16814;DHT22;8524;57.650;11.926;2024-01-27T15:45:42;5.40;99.90